sensor_id;sensor_type;location;lat;lon;timestamp;P1;durP1;ratioP1;P2;durP2;ratioP2
62711;SDS011;48772;55.586;37.730;2022-07-23T00:02:16;10.10;;;4.20;;
62711;SDS011;48772;55.586;37.730;2022-07-23T00:04:41;9.63;;;4.30;;
62711;SDS011;48772;55.586;37.730;2022-07-23T00:07:07;10.40;;;4.30;;
62711;SDS011;48772;55.586;37.730;2022-07-23T00:09:33;10.40;;;4.00;;
62711;SDS011;48772;55.586;37.730;2022-07-23T00:11:59;6.47;;;4.22;;
62711;SDS011;48772;55.586;37.730;2022-07-23T00:14:25;8.43;;;4.63;;
62711;SDS011;48772;55.586;37.730;2022-07-23T00:16:50;8.25;;;3.97;;
62711;SDS011;48772;55.586;37.730;2022-07-23T00:19:16;12.98;;;4.22;;
62711;SDS011;48772;55.586;37.730;2022-07-23T00:21:42;8.98;;;4.07;;
62711;SDS011;48772;55.586;37.730;2022-07-23T00:24:08;7.60;;;4.22;;
62711;SDS011;48772;55.586;37.730;2022-07-23T00:26:33;8.02;;;4.18;;
62711;SDS011;48772;55.586;37.730;2022-07-23T00:28:59;8.40;;;4.22;;
62711;SDS011;48772;55.586;37.730;2022-07-23T00:31:25;8.15;;;4.28;;
62711;SDS011;48772;55.586;37.730;2022-07-23T00:33:51;8.77;;;4.20;;
62711;SDS011;48772;55.586;37.730;2022-07-23T00:36:17;9.95;;;4.10;;
62711;SDS011;48772;55.586;37.730;2022-07-23T00:38:45;8.07;;;4.03;;
62711;SDS011;48772;55.586;37.730;2022-07-23T00:41:10;7.85;;;3.80;;
62711;SDS011;48772;55.586;37.730;2022-07-23T00:43:36;10.32;;;3.97;;
62711;SDS011;48772;55.586;37.730;2022-07-23T00:46:02;8.35;;;4.15;;
62711;SDS011;48772;55.586;37.730;2022-07-23T00:48:28;8.60;;;3.88;;
62711;SDS011;48772;55.586;37.730;2022-07-23T00:50:54;7.03;;;3.67;;
62711;SDS011;48772;55.586;37.730;2022-07-23T00:53:20;5.78;;;4.10;;
62711;SDS011;48772;55.586;37.730;2022-07-23T00:55:46;9.55;;;4.10;;
62711;SDS011;48772;55.586;37.730;2022-07-23T00:58:13;6.05;;;3.97;;
62711;SDS011;48772;55.586;37.730;2022-07-23T01:00:39;6.93;;;4.00;;
62711;SDS011;48772;55.586;37.730;2022-07-23T01:03:05;7.32;;;4.05;;
62711;SDS011;48772;55.586;37.730;2022-07-23T01:05:31;13.65;;;4.30;;
62711;SDS011;48772;55.586;37.730;2022-07-23T01:07:57;15.80;;;3.85;;
62711;SDS011;48772;55.586;37.730;2022-07-23T01:10:23;7.40;;;4.22;;
62711;SDS011;48772;55.586;37.730;2022-07-23T01:12:56;5.68;;;3.92;;
62711;SDS011;48772;55.586;37.730;2022-07-23T01:15:23;12.23;;;4.00;;
62711;SDS011;48772;55.586;37.730;2022-07-23T01:17:49;9.82;;;4.00;;
62711;SDS011;48772;55.586;37.730;2022-07-23T01:20:16;6.57;;;3.70;;
62711;SDS011;48772;55.586;37.730;2022-07-23T01:22:42;7.53;;;3.72;;
62711;SDS011;48772;55.586;37.730;2022-07-23T01:25:08;7.05;;;3.80;;
62711;SDS011;48772;55.586;37.730;2022-07-23T01:27:35;8.50;;;4.30;;
62711;SDS011;48772;55.586;37.730;2022-07-23T01:30:03;8.15;;;3.90;;
62711;SDS011;48772;55.586;37.730;2022-07-23T01:32:30;9.15;;;3.92;;
62711;SDS011;48772;55.586;37.730;2022-07-23T01:34:56;8.93;;;4.30;;
62711;SDS011;48772;55.586;37.730;2022-07-23T01:37:22;10.43;;;4.25;;
62711;SDS011;48772;55.586;37.730;2022-07-23T01:39:48;9.25;;;4.10;;
62711;SDS011;48772;55.586;37.730;2022-07-23T01:42:14;6.57;;;3.90;;
62711;SDS011;48772;55.586;37.730;2022-07-23T01:44:40;9.35;;;4.28;;
62711;SDS011;48772;55.586;37.730;2022-07-23T01:47:09;7.55;;;4.30;;
62711;SDS011;48772;55.586;37.730;2022-07-23T01:49:35;9.93;;;4.30;;
62711;SDS011;48772;55.586;37.730;2022-07-23T01:52:29;7.80;;;4.07;;
62711;SDS011;48772;55.586;37.730;2022-07-23T01:54:54;10.27;;;4.10;;
62711;SDS011;48772;55.586;37.730;2022-07-23T01:57:20;11.90;;;3.90;;
62711;SDS011;48772;55.586;37.730;2022-07-23T01:59:46;9.07;;;4.50;;
62711;SDS011;48772;55.586;37.730;2022-07-23T02:02:12;7.85;;;4.60;;
62711;SDS011;48772;55.586;37.730;2022-07-23T02:04:38;12.85;;;5.03;;
62711;SDS011;48772;55.586;37.730;2022-07-23T02:07:04;12.20;;;5.03;;
62711;SDS011;48772;55.586;37.730;2022-07-23T02:09:30;10.48;;;4.88;;
62711;SDS011;48772;55.586;37.730;2022-07-23T02:11:57;10.52;;;5.07;;
62711;SDS011;48772;55.586;37.730;2022-07-23T02:14:23;11.18;;;4.70;;
62711;SDS011;48772;55.586;37.730;2022-07-23T02:16:50;14.75;;;4.60;;
62711;SDS011;48772;55.586;37.730;2022-07-23T02:19:16;13.75;;;4.50;;
62711;SDS011;48772;55.586;37.730;2022-07-23T02:21:41;9.45;;;4.72;;
62711;SDS011;48772;55.586;37.730;2022-07-23T02:24:07;10.93;;;4.82;;
62711;SDS011;48772;55.586;37.730;2022-07-23T02:26:33;9.57;;;4.30;;
62711;SDS011;48772;55.586;37.730;2022-07-23T02:29:05;12.02;;;4.90;;
62711;SDS011;48772;55.586;37.730;2022-07-23T02:31:32;12.32;;;4.88;;
62711;SDS011;48772;55.586;37.730;2022-07-23T02:33:58;8.27;;;4.88;;
62711;SDS011;48772;55.586;37.730;2022-07-23T02:36:24;8.98;;;4.82;;
62711;SDS011;48772;55.586;37.730;2022-07-23T02:38:52;10.15;;;5.28;;
62711;SDS011;48772;55.586;37.730;2022-07-23T02:41:17;8.00;;;4.97;;
62711;SDS011;48772;55.586;37.730;2022-07-23T02:43:44;15.15;;;4.72;;
62711;SDS011;48772;55.586;37.730;2022-07-23T02:46:11;12.45;;;4.82;;
62711;SDS011;48772;55.586;37.730;2022-07-23T02:48:37;10.70;;;4.80;;
62711;SDS011;48772;55.586;37.730;2022-07-23T02:51:03;11.82;;;5.32;;
62711;SDS011;48772;55.586;37.730;2022-07-23T02:53:36;8.20;;;4.75;;
62711;SDS011;48772;55.586;37.730;2022-07-23T02:56:01;8.50;;;4.78;;
62711;SDS011;48772;55.586;37.730;2022-07-23T02:58:27;10.95;;;4.75;;
62711;SDS011;48772;55.586;37.730;2022-07-23T03:00:53;15.15;;;5.05;;
62711;SDS011;48772;55.586;37.730;2022-07-23T03:03:19;12.48;;;5.00;;
62711;SDS011;48772;55.586;37.730;2022-07-23T03:05:45;10.25;;;4.93;;
62711;SDS011;48772;55.586;37.730;2022-07-23T03:08:11;12.07;;;4.70;;
62711;SDS011;48772;55.586;37.730;2022-07-23T03:10:39;11.60;;;5.72;;
62711;SDS011;48772;55.586;37.730;2022-07-23T03:13:05;8.02;;;4.70;;
62711;SDS011;48772;55.586;37.730;2022-07-23T03:15:31;9.63;;;4.90;;
62711;SDS011;48772;55.586;37.730;2022-07-23T03:17:57;10.10;;;4.85;;
62711;SDS011;48772;55.586;37.730;2022-07-23T03:20:24;6.97;;;4.78;;
62711;SDS011;48772;55.586;37.730;2022-07-23T03:22:49;10.43;;;4.90;;
62711;SDS011;48772;55.586;37.730;2022-07-23T03:25:16;13.52;;;5.35;;
62711;SDS011;48772;55.586;37.730;2022-07-23T03:27:42;13.32;;;5.43;;
62711;SDS011;48772;55.586;37.730;2022-07-23T03:30:08;12.32;;;5.72;;
62711;SDS011;48772;55.586;37.730;2022-07-23T03:32:35;13.00;;;5.60;;
62711;SDS011;48772;55.586;37.730;2022-07-23T03:35:00;10.75;;;5.20;;
62711;SDS011;48772;55.586;37.730;2022-07-23T03:37:29;10.38;;;5.15;;
62711;SDS011;48772;55.586;37.730;2022-07-23T03:39:57;17.52;;;5.57;;
62711;SDS011;48772;55.586;37.730;2022-07-23T03:42:22;8.77;;;5.43;;
62711;SDS011;48772;55.586;37.730;2022-07-23T03:44:48;13.25;;;5.57;;
62711;SDS011;48772;55.586;37.730;2022-07-23T03:47:14;12.20;;;5.85;;
62711;SDS011;48772;55.586;37.730;2022-07-23T03:49:42;13.00;;;5.32;;
62711;SDS011;48772;55.586;37.730;2022-07-23T03:52:09;10.35;;;4.85;;
62711;SDS011;48772;55.586;37.730;2022-07-23T03:54:34;9.57;;;5.10;;
62711;SDS011;48772;55.586;37.730;2022-07-23T03:57:01;8.18;;;5.30;;
62711;SDS011;48772;55.586;37.730;2022-07-23T03:59:27;12.73;;;5.20;;
62711;SDS011;48772;55.586;37.730;2022-07-23T04:01:53;10.82;;;5.20;;
62711;SDS011;48772;55.586;37.730;2022-07-23T04:04:19;10.18;;;5.38;;
62711;SDS011;48772;55.586;37.730;2022-07-23T04:06:45;11.77;;;5.35;;
62711;SDS011;48772;55.586;37.730;2022-07-23T04:09:11;11.88;;;5.28;;
62711;SDS011;48772;55.586;37.730;2022-07-23T04:11:37;13.65;;;5.60;;
62711;SDS011;48772;55.586;37.730;2022-07-23T04:14:04;10.52;;;5.80;;
62711;SDS011;48772;55.586;37.730;2022-07-23T04:16:29;12.60;;;5.95;;
62711;SDS011;48772;55.586;37.730;2022-07-23T04:18:57;11.40;;;5.32;;
62711;SDS011;48772;55.586;37.730;2022-07-23T04:21:24;11.30;;;5.07;;
62711;SDS011;48772;55.586;37.730;2022-07-23T04:23:50;12.23;;;5.93;;
62711;SDS011;48772;55.586;37.730;2022-07-23T04:26:15;8.80;;;5.57;;
62711;SDS011;48772;55.586;37.730;2022-07-23T04:28:42;13.00;;;5.72;;
62711;SDS011;48772;55.586;37.730;2022-07-23T04:31:08;9.57;;;5.40;;
62711;SDS011;48772;55.586;37.730;2022-07-23T04:33:38;11.52;;;6.07;;
62711;SDS011;48772;55.586;37.730;2022-07-23T04:36:05;11.15;;;5.82;;
62711;SDS011;48772;55.586;37.730;2022-07-23T04:38:32;14.18;;;5.55;;
62711;SDS011;48772;55.586;37.730;2022-07-23T04:41:00;12.02;;;6.00;;
62711;SDS011;48772;55.586;37.730;2022-07-23T04:43:26;10.55;;;6.00;;
62711;SDS011;48772;55.586;37.730;2022-07-23T04:45:53;17.65;;;9.35;;
62711;SDS011;48772;55.586;37.730;2022-07-23T04:48:19;13.15;;;6.47;;
62711;SDS011;48772;55.586;37.730;2022-07-23T04:50:47;13.57;;;6.38;;
62711;SDS011;48772;55.586;37.730;2022-07-23T04:53:30;20.08;;;6.20;;
62711;SDS011;48772;55.586;37.730;2022-07-23T04:55:59;13.75;;;5.68;;
62711;SDS011;48772;55.586;37.730;2022-07-23T04:58:25;13.45;;;6.32;;
62711;SDS011;48772;55.586;37.730;2022-07-23T05:00:51;10.50;;;6.13;;
62711;SDS011;48772;55.586;37.730;2022-07-23T05:03:17;8.73;;;5.60;;
62711;SDS011;48772;55.586;37.730;2022-07-23T05:05:45;15.13;;;6.75;;
62711;SDS011;48772;55.586;37.730;2022-07-23T05:08:14;14.90;;;6.28;;
62711;SDS011;48772;55.586;37.730;2022-07-23T05:10:42;15.70;;;6.35;;
62711;SDS011;48772;55.586;37.730;2022-07-23T05:13:08;13.50;;;5.97;;
62711;SDS011;48772;55.586;37.730;2022-07-23T05:15:34;10.93;;;5.93;;
62711;SDS011;48772;55.586;37.730;2022-07-23T05:18:00;17.98;;;6.18;;
62711;SDS011;48772;55.586;37.730;2022-07-23T05:20:27;12.07;;;6.80;;
62711;SDS011;48772;55.586;37.730;2022-07-23T05:22:55;15.90;;;6.40;;
62711;SDS011;48772;55.586;37.730;2022-07-23T05:25:25;13.18;;;6.43;;
62711;SDS011;48772;55.586;37.730;2022-07-23T05:27:51;12.45;;;6.68;;
62711;SDS011;48772;55.586;37.730;2022-07-23T05:30:17;19.45;;;6.35;;
62711;SDS011;48772;55.586;37.730;2022-07-23T05:32:45;16.73;;;6.47;;
62711;SDS011;48772;55.586;37.730;2022-07-23T05:35:15;14.38;;;6.07;;
62711;SDS011;48772;55.586;37.730;2022-07-23T05:37:47;11.73;;;6.03;;
62711;SDS011;48772;55.586;37.730;2022-07-23T05:40:13;13.73;;;6.43;;
62711;SDS011;48772;55.586;37.730;2022-07-23T05:42:39;16.60;;;6.75;;
62711;SDS011;48772;55.586;37.730;2022-07-23T05:45:10;14.38;;;6.47;;
62711;SDS011;48772;55.586;37.730;2022-07-23T05:47:46;12.23;;;6.32;;
62711;SDS011;48772;55.586;37.730;2022-07-23T05:50:18;17.15;;;6.80;;
62711;SDS011;48772;55.586;37.730;2022-07-23T05:52:49;22.65;;;6.88;;
62711;SDS011;48772;55.586;37.730;2022-07-23T05:55:30;10.75;;;6.07;;
62711;SDS011;48772;55.586;37.730;2022-07-23T05:57:58;13.48;;;6.47;;
62711;SDS011;48772;55.586;37.730;2022-07-23T06:00:30;11.82;;;6.53;;
62711;SDS011;48772;55.586;37.730;2022-07-23T06:02:57;8.57;;;5.60;;
62711;SDS011;48772;55.586;37.730;2022-07-23T06:05:23;11.88;;;6.18;;
62711;SDS011;48772;55.586;37.730;2022-07-23T06:07:52;12.43;;;5.80;;
62711;SDS011;48772;55.586;37.730;2022-07-23T06:10:18;7.57;;;5.55;;
62711;SDS011;48772;55.586;37.730;2022-07-23T06:12:45;14.05;;;5.55;;
62711;SDS011;48772;55.586;37.730;2022-07-23T06:15:12;12.02;;;5.70;;
62711;SDS011;48772;55.586;37.730;2022-07-23T06:17:38;8.70;;;5.45;;
62711;SDS011;48772;55.586;37.730;2022-07-23T06:20:08;7.65;;;5.60;;
62711;SDS011;48772;55.586;37.730;2022-07-23T06:22:37;8.30;;;5.50;;
62711;SDS011;48772;55.586;37.730;2022-07-23T06:25:03;8.90;;;5.50;;
62711;SDS011;48772;55.586;37.730;2022-07-23T06:27:29;12.40;;;5.85;;
62711;SDS011;48772;55.586;37.730;2022-07-23T06:29:55;12.18;;;5.40;;
62711;SDS011;48772;55.586;37.730;2022-07-23T06:32:21;9.93;;;5.60;;
62711;SDS011;48772;55.586;37.730;2022-07-23T06:34:49;12.65;;;5.55;;
62711;SDS011;48772;55.586;37.730;2022-07-23T06:37:15;10.85;;;5.65;;
62711;SDS011;48772;55.586;37.730;2022-07-23T06:39:41;14.70;;;5.65;;
62711;SDS011;48772;55.586;37.730;2022-07-23T06:42:07;10.80;;;5.55;;
62711;SDS011;48772;55.586;37.730;2022-07-23T06:44:43;10.57;;;5.82;;
62711;SDS011;48772;55.586;37.730;2022-07-23T06:47:09;11.95;;;6.25;;
62711;SDS011;48772;55.586;37.730;2022-07-23T06:49:35;6.85;;;6.05;;
62711;SDS011;48772;55.586;37.730;2022-07-23T06:52:01;13.27;;;5.72;;
62711;SDS011;48772;55.586;37.730;2022-07-23T06:54:26;11.35;;;6.93;;
62711;SDS011;48772;55.586;37.730;2022-07-23T06:56:53;9.50;;;6.15;;
62711;SDS011;48772;55.586;37.730;2022-07-23T06:59:19;7.10;;;6.30;;
62711;SDS011;48772;55.586;37.730;2022-07-23T07:01:44;9.65;;;6.22;;
62711;SDS011;48772;55.586;37.730;2022-07-23T07:04:10;10.30;;;5.55;;
62711;SDS011;48772;55.586;37.730;2022-07-23T07:06:36;7.55;;;5.97;;
62711;SDS011;48772;55.586;37.730;2022-07-23T07:09:02;11.40;;;5.80;;
62711;SDS011;48772;55.586;37.730;2022-07-23T07:11:27;8.77;;;5.00;;
62711;SDS011;48772;55.586;37.730;2022-07-23T07:13:53;9.75;;;6.03;;
62711;SDS011;48772;55.586;37.730;2022-07-23T07:16:19;6.88;;;5.25;;
62711;SDS011;48772;55.586;37.730;2022-07-23T07:18:45;8.80;;;5.20;;
62711;SDS011;48772;55.586;37.730;2022-07-23T07:21:11;9.68;;;5.30;;
62711;SDS011;48772;55.586;37.730;2022-07-23T07:23:37;6.70;;;5.20;;
62711;SDS011;48772;55.586;37.730;2022-07-23T07:26:03;8.93;;;5.50;;
62711;SDS011;48772;55.586;37.730;2022-07-23T07:28:28;8.90;;;5.47;;
62711;SDS011;48772;55.586;37.730;2022-07-23T07:30:54;6.88;;;5.50;;
62711;SDS011;48772;55.586;37.730;2022-07-23T07:33:20;8.25;;;5.28;;
62711;SDS011;48772;55.586;37.730;2022-07-23T07:35:47;14.48;;;5.25;;
62711;SDS011;48772;55.586;37.730;2022-07-23T07:38:13;7.63;;;4.93;;
62711;SDS011;48772;55.586;37.730;2022-07-23T07:40:39;10.38;;;5.95;;
62711;SDS011;48772;55.586;37.730;2022-07-23T07:43:04;8.60;;;5.97;;
62711;SDS011;48772;55.586;37.730;2022-07-23T07:45:31;6.97;;;5.25;;
62711;SDS011;48772;55.586;37.730;2022-07-23T07:47:57;7.53;;;5.22;;
62711;SDS011;48772;55.586;37.730;2022-07-23T07:50:25;6.82;;;5.50;;
62711;SDS011;48772;55.586;37.730;2022-07-23T07:52:51;8.02;;;5.50;;
62711;SDS011;48772;55.586;37.730;2022-07-23T07:55:17;7.80;;;5.15;;
62711;SDS011;48772;55.586;37.730;2022-07-23T07:57:43;5.63;;;5.07;;
62711;SDS011;48772;55.586;37.730;2022-07-23T08:00:09;9.75;;;5.63;;
62711;SDS011;48772;55.586;37.730;2022-07-23T08:02:43;6.20;;;5.53;;
62711;SDS011;48772;55.586;37.730;2022-07-23T08:05:13;10.10;;;5.55;;
62711;SDS011;48772;55.586;37.730;2022-07-23T08:07:39;8.20;;;5.68;;
62711;SDS011;48772;55.586;37.730;2022-07-23T08:10:06;11.50;;;5.85;;
62711;SDS011;48772;55.586;37.730;2022-07-23T08:15:06;11.68;;;6.20;;
62711;SDS011;48772;55.586;37.730;2022-07-23T08:17:36;7.95;;;5.50;;
62711;SDS011;48772;55.586;37.730;2022-07-23T08:20:05;6.32;;;5.30;;
62711;SDS011;48772;55.586;37.730;2022-07-23T08:25:12;6.20;;;5.53;;
62711;SDS011;48772;55.586;37.730;2022-07-23T08:27:40;7.45;;;5.90;;
62711;SDS011;48772;55.586;37.730;2022-07-23T08:30:07;10.82;;;5.43;;
62711;SDS011;48772;55.586;37.730;2022-07-23T08:32:34;7.85;;;5.53;;
62711;SDS011;48772;55.586;37.730;2022-07-23T08:35:15;7.13;;;6.40;;
62711;SDS011;48772;55.586;37.730;2022-07-23T08:37:41;5.88;;;5.28;;
62711;SDS011;48772;55.586;37.730;2022-07-23T08:40:07;8.52;;;5.68;;
62711;SDS011;48772;55.586;37.730;2022-07-23T08:42:34;8.00;;;5.93;;
62711;SDS011;48772;55.586;37.730;2022-07-23T08:45:01;8.10;;;5.90;;
62711;SDS011;48772;55.586;37.730;2022-07-23T08:47:29;8.00;;;6.72;;
62711;SDS011;48772;55.586;37.730;2022-07-23T08:49:56;6.07;;;5.57;;
62711;SDS011;48772;55.586;37.730;2022-07-23T08:52:24;7.43;;;5.70;;
62711;SDS011;48772;55.586;37.730;2022-07-23T08:54:51;6.82;;;5.45;;
62711;SDS011;48772;55.586;37.730;2022-07-23T08:57:18;8.35;;;5.50;;
62711;SDS011;48772;55.586;37.730;2022-07-23T08:59:43;10.05;;;5.55;;
62711;SDS011;48772;55.586;37.730;2022-07-23T09:02:09;6.30;;;5.53;;
62711;SDS011;48772;55.586;37.730;2022-07-23T09:04:35;14.25;;;5.85;;
62711;SDS011;48772;55.586;37.730;2022-07-23T09:07:01;7.25;;;5.93;;
62711;SDS011;48772;55.586;37.730;2022-07-23T09:09:27;10.70;;;6.50;;
62711;SDS011;48772;55.586;37.730;2022-07-23T09:12:03;9.23;;;6.07;;
62711;SDS011;48772;55.586;37.730;2022-07-23T09:14:37;10.25;;;6.07;;
62711;SDS011;48772;55.586;37.730;2022-07-23T09:17:13;8.30;;;5.93;;
62711;SDS011;48772;55.586;37.730;2022-07-23T09:19:44;8.07;;;5.95;;
62711;SDS011;48772;55.586;37.730;2022-07-23T09:22:17;8.68;;;5.90;;
62711;SDS011;48772;55.586;37.730;2022-07-23T09:30:23;8.93;;;5.72;;
62711;SDS011;48772;55.586;37.730;2022-07-23T09:33:08;12.63;;;6.00;;
62711;SDS011;48772;55.586;37.730;2022-07-23T09:38:18;10.75;;;6.55;;
62711;SDS011;48772;55.586;37.730;2022-07-23T09:43:34;8.82;;;6.50;;
62711;SDS011;48772;55.586;37.730;2022-07-23T09:48:52;8.13;;;6.30;;
62711;SDS011;48772;55.586;37.730;2022-07-23T09:51:24;9.82;;;6.22;;
62711;SDS011;48772;55.586;37.730;2022-07-23T09:53:54;8.43;;;6.70;;
62711;SDS011;48772;55.586;37.730;2022-07-23T09:56:20;6.97;;;6.32;;
62711;SDS011;48772;55.586;37.730;2022-07-23T09:58:49;10.13;;;6.45;;
62711;SDS011;48772;55.586;37.730;2022-07-23T10:01:28;7.90;;;6.30;;
62711;SDS011;48772;55.586;37.730;2022-07-23T10:03:56;7.28;;;6.57;;
62711;SDS011;48772;55.586;37.730;2022-07-23T10:07:02;8.02;;;6.70;;
62711;SDS011;48772;55.586;37.730;2022-07-23T10:09:53;10.98;;;6.40;;
62711;SDS011;48772;55.586;37.730;2022-07-23T10:12:39;8.80;;;6.63;;
62711;SDS011;48772;55.586;37.730;2022-07-23T10:15:17;8.07;;;6.75;;
62711;SDS011;48772;55.586;37.730;2022-07-23T10:17:44;7.60;;;6.38;;
62711;SDS011;48772;55.586;37.730;2022-07-23T10:20:10;6.72;;;6.05;;
62711;SDS011;48772;55.586;37.730;2022-07-23T10:25:46;11.02;;;6.32;;
62711;SDS011;48772;55.586;37.730;2022-07-23T10:31:41;6.95;;;6.25;;
62711;SDS011;48772;55.586;37.730;2022-07-23T10:34:50;7.30;;;6.60;;
62711;SDS011;48772;55.586;37.730;2022-07-23T10:40:16;8.13;;;6.60;;
62711;SDS011;48772;55.586;37.730;2022-07-23T10:42:48;8.68;;;6.75;;
62711;SDS011;48772;55.586;37.730;2022-07-23T10:45:25;8.30;;;6.75;;
62711;SDS011;48772;55.586;37.730;2022-07-23T10:47:53;10.85;;;6.60;;
62711;SDS011;48772;55.586;37.730;2022-07-23T10:50:23;9.52;;;7.05;;
62711;SDS011;48772;55.586;37.730;2022-07-23T10:58:00;9.15;;;6.40;;
62711;SDS011;48772;55.586;37.730;2022-07-23T11:00:28;9.07;;;7.00;;
62711;SDS011;48772;55.586;37.730;2022-07-23T11:02:56;9.10;;;6.60;;
62711;SDS011;48772;55.586;37.730;2022-07-23T11:05:38;8.98;;;7.15;;
62711;SDS011;48772;55.586;37.730;2022-07-23T11:10:39;12.45;;;6.63;;
62711;SDS011;48772;55.586;37.730;2022-07-23T11:13:27;8.13;;;6.50;;
62711;SDS011;48772;55.586;37.730;2022-07-23T11:16:04;8.40;;;6.82;;
62711;SDS011;48772;55.586;37.730;2022-07-23T11:24:03;14.18;;;8.13;;
62711;SDS011;48772;55.586;37.730;2022-07-23T11:31:59;8.63;;;7.40;;
62711;SDS011;48772;55.586;37.730;2022-07-23T11:34:44;12.38;;;7.30;;
62711;SDS011;48772;55.586;37.730;2022-07-23T11:37:15;10.40;;;7.13;;
62711;SDS011;48772;55.586;37.730;2022-07-23T11:39:57;8.30;;;6.82;;
62711;SDS011;48772;55.586;37.730;2022-07-23T11:42:23;12.52;;;6.65;;
62711;SDS011;48772;55.586;37.730;2022-07-23T11:44:50;8.27;;;7.03;;
62711;SDS011;48772;55.586;37.730;2022-07-23T11:47:20;8.68;;;6.40;;
62711;SDS011;48772;55.586;37.730;2022-07-23T11:49:58;8.93;;;7.63;;
62711;SDS011;48772;55.586;37.730;2022-07-23T11:52:25;13.23;;;7.07;;
62711;SDS011;48772;55.586;37.730;2022-07-23T11:55:03;7.63;;;6.82;;
62711;SDS011;48772;55.586;37.730;2022-07-23T11:57:35;9.27;;;6.68;;
62711;SDS011;48772;55.586;37.730;2022-07-23T12:00:10;13.10;;;6.93;;
62711;SDS011;48772;55.586;37.730;2022-07-23T12:02:40;12.07;;;6.50;;
62711;SDS011;48772;55.586;37.730;2022-07-23T12:05:14;12.40;;;6.88;;
62711;SDS011;48772;55.586;37.730;2022-07-23T12:07:42;7.55;;;6.65;;
62711;SDS011;48772;55.586;37.730;2022-07-23T12:10:16;16.52;;;10.18;;
62711;SDS011;48772;55.586;37.730;2022-07-23T12:12:49;11.82;;;7.13;;
62711;SDS011;48772;55.586;37.730;2022-07-23T12:15:32;23.67;;;8.05;;
62711;SDS011;48772;55.586;37.730;2022-07-23T12:18:05;11.30;;;6.90;;
62711;SDS011;48772;55.586;37.730;2022-07-23T12:20:35;8.68;;;7.10;;
62711;SDS011;48772;55.586;37.730;2022-07-23T12:23:04;12.05;;;6.63;;
62711;SDS011;48772;55.586;37.730;2022-07-23T12:25:32;8.77;;;6.38;;
62711;SDS011;48772;55.586;37.730;2022-07-23T12:28:05;8.63;;;6.32;;
62711;SDS011;48772;55.586;37.730;2022-07-23T12:33:06;12.05;;;6.60;;
62711;SDS011;48772;55.586;37.730;2022-07-23T12:35:38;13.63;;;7.15;;
62711;SDS011;48772;55.586;37.730;2022-07-23T12:38:14;9.93;;;6.93;;
62711;SDS011;48772;55.586;37.730;2022-07-23T12:43:19;9.60;;;7.10;;
62711;SDS011;48772;55.586;37.730;2022-07-23T12:46:02;8.98;;;6.80;;
62711;SDS011;48772;55.586;37.730;2022-07-23T12:48:30;10.50;;;7.10;;
62711;SDS011;48772;55.586;37.730;2022-07-23T12:51:04;27.63;;;7.45;;
62711;SDS011;48772;55.586;37.730;2022-07-23T12:54:04;17.38;;;7.32;;
62711;SDS011;48772;55.586;37.730;2022-07-23T12:56:32;10.07;;;6.70;;
62711;SDS011;48772;55.586;37.730;2022-07-23T13:01:33;9.98;;;7.18;;
62711;SDS011;48772;55.586;37.730;2022-07-23T13:06:30;14.13;;;7.80;;
62711;SDS011;48772;55.586;37.730;2022-07-23T13:08:58;12.82;;;7.53;;
62711;SDS011;48772;55.586;37.730;2022-07-23T13:11:24;8.80;;;7.10;;
62711;SDS011;48772;55.586;37.730;2022-07-23T13:13:50;8.25;;;7.35;;
62711;SDS011;48772;55.586;37.730;2022-07-23T13:16:17;9.52;;;7.35;;
62711;SDS011;48772;55.586;37.730;2022-07-23T13:18:42;13.90;;;6.72;;
62711;SDS011;48772;55.586;37.730;2022-07-23T13:21:08;11.50;;;7.40;;
62711;SDS011;48772;55.586;37.730;2022-07-23T13:23:34;9.88;;;6.85;;
62711;SDS011;48772;55.586;37.730;2022-07-23T13:26:01;9.27;;;6.75;;
62711;SDS011;48772;55.586;37.730;2022-07-23T13:28:27;8.68;;;6.60;;
62711;SDS011;48772;55.586;37.730;2022-07-23T13:30:53;12.25;;;7.45;;
62711;SDS011;48772;55.586;37.730;2022-07-23T13:33:20;12.07;;;7.20;;
62711;SDS011;48772;55.586;37.730;2022-07-23T13:35:47;9.88;;;6.45;;
62711;SDS011;48772;55.586;37.730;2022-07-23T13:38:14;8.52;;;6.68;;
62711;SDS011;48772;55.586;37.730;2022-07-23T13:40:41;8.60;;;6.38;;
62711;SDS011;48772;55.586;37.730;2022-07-23T13:43:09;8.98;;;6.97;;
62711;SDS011;48772;55.586;37.730;2022-07-23T13:45:36;11.20;;;6.80;;
62711;SDS011;48772;55.586;37.730;2022-07-23T13:48:05;10.20;;;6.40;;
62711;SDS011;48772;55.586;37.730;2022-07-23T13:50:33;17.92;;;7.25;;
62711;SDS011;48772;55.586;37.730;2022-07-23T13:53:06;12.70;;;7.50;;
62711;SDS011;48772;55.586;37.730;2022-07-23T13:55:35;8.65;;;6.75;;
62711;SDS011;48772;55.586;37.730;2022-07-23T13:58:02;7.63;;;6.80;;
62711;SDS011;48772;55.586;37.730;2022-07-23T14:00:29;11.27;;;7.40;;
62711;SDS011;48772;55.586;37.730;2022-07-23T14:02:56;10.73;;;7.03;;
62711;SDS011;48772;55.586;37.730;2022-07-23T14:05:22;15.23;;;6.97;;
62711;SDS011;48772;55.586;37.730;2022-07-23T14:07:48;8.77;;;7.05;;
62711;SDS011;48772;55.586;37.730;2022-07-23T14:10:17;15.93;;;7.03;;
62711;SDS011;48772;55.586;37.730;2022-07-23T14:12:45;8.98;;;6.93;;
62711;SDS011;48772;55.586;37.730;2022-07-23T14:15:12;10.45;;;7.18;;
62711;SDS011;48772;55.586;37.730;2022-07-23T14:17:39;8.73;;;6.63;;
62711;SDS011;48772;55.586;37.730;2022-07-23T14:20:06;11.43;;;6.80;;
62711;SDS011;48772;55.586;37.730;2022-07-23T14:22:34;8.45;;;6.38;;
62711;SDS011;48772;55.586;37.730;2022-07-23T14:25:00;8.70;;;6.50;;
62711;SDS011;48772;55.586;37.730;2022-07-23T14:27:27;11.02;;;6.93;;
62711;SDS011;48772;55.586;37.730;2022-07-23T14:29:54;8.18;;;7.32;;
62711;SDS011;48772;55.586;37.730;2022-07-23T14:32:20;7.30;;;6.55;;
62711;SDS011;48772;55.586;37.730;2022-07-23T14:34:46;9.18;;;6.38;;
62711;SDS011;48772;55.586;37.730;2022-07-23T14:37:13;7.63;;;6.63;;
62711;SDS011;48772;55.586;37.730;2022-07-23T14:39:40;7.28;;;6.57;;
62711;SDS011;48772;55.586;37.730;2022-07-23T14:42:06;13.73;;;6.25;;
62711;SDS011;48772;55.586;37.730;2022-07-23T14:44:33;9.35;;;6.75;;
62711;SDS011;48772;55.586;37.730;2022-07-23T14:47:00;7.75;;;6.22;;
62711;SDS011;48772;55.586;37.730;2022-07-23T14:49:26;8.80;;;6.20;;
62711;SDS011;48772;55.586;37.730;2022-07-23T14:51:57;11.45;;;6.85;;
62711;SDS011;48772;55.586;37.730;2022-07-23T14:54:23;9.45;;;6.90;;
62711;SDS011;48772;55.586;37.730;2022-07-23T14:56:52;11.93;;;6.72;;
62711;SDS011;48772;55.586;37.730;2022-07-23T14:59:19;11.52;;;6.75;;
62711;SDS011;48772;55.586;37.730;2022-07-23T15:01:51;10.63;;;6.68;;
62711;SDS011;48772;55.586;37.730;2022-07-23T15:04:17;15.75;;;6.97;;
62711;SDS011;48772;55.586;37.730;2022-07-23T15:06:45;13.68;;;7.13;;
62711;SDS011;48772;55.586;37.730;2022-07-23T15:09:12;8.90;;;6.47;;
62711;SDS011;48772;55.586;37.730;2022-07-23T15:11:39;10.90;;;6.28;;
62711;SDS011;48772;55.586;37.730;2022-07-23T15:14:05;10.73;;;6.43;;
62711;SDS011;48772;55.586;37.730;2022-07-23T15:16:33;8.63;;;6.20;;
62711;SDS011;48772;55.586;37.730;2022-07-23T15:18:59;10.52;;;6.28;;
62711;SDS011;48772;55.586;37.730;2022-07-23T15:21:27;9.38;;;6.20;;
62711;SDS011;48772;55.586;37.730;2022-07-23T15:23:58;12.70;;;7.20;;
62711;SDS011;48772;55.586;37.730;2022-07-23T15:26:25;9.02;;;6.80;;
62711;SDS011;48772;55.586;37.730;2022-07-23T15:28:52;25.15;;;7.80;;
62711;SDS011;48772;55.586;37.730;2022-07-23T15:31:18;10.70;;;6.53;;
62711;SDS011;48772;55.586;37.730;2022-07-23T15:33:44;12.95;;;6.82;;